Time;durP1;ratioP1;P1;durP2;ratioP2;P2;SDS_P1;SDS_P2;PMS_P1;PMS_P2;Temp;Humidity;BMP_temperature;BMP_pressure;BME280_temperature;BME280_humidity;BME280_pressure;Samples;Min_cycle;Max_cycle;Signal;HPM_P1;HPM_P2
2021/05/06 00:33:02;;;;;;;3.27;1.60;;;;;;;9.65;51.16;97387.50;8351288;28;20200;-62
2021/05/06 00:37:04;;;;;;;4.77;2.00;;;;;;;9.47;51.80;97391.03;8350826;28;20205;-62
2021/05/06 00:41:16;;;;;;;3.07;1.70;;;;;;;9.57;51.51;97390.47;8351289;28;20226;-62
2021/05/06 00:45:53;;;;;;;2.50;1.70;;;;;;;9.51;51.75;97395.13;8350607;28;20391;-62
2021/05/06 00:54:30;;;;;;;4.10;1.70;;;;;;;9.53;51.01;97388.97;8351257;28;20227;-62
2021/05/06 01:03:18;;;;;;;3.00;1.57;;;;;;;9.68;50.56;97389.97;8363218;28;20200;-62
2021/05/06 01:11:42;;;;;;;4.07;1.80;;;;;;;9.28;51.34;97393.66;8383778;28;20250;-62
2021/05/06 01:15:44;;;;;;;3.03;1.40;;;;;;;9.37;51.11;97395.81;8383554;28;20475;-62
2021/05/06 01:20:07;;;;;;;2.17;1.40;;;;;;;9.45;50.46;97398.84;8383075;28;20566;-62
2021/05/06 01:24:10;;;;;;;5.23;1.70;;;;;;;9.38;50.87;97387.13;8382979;28;20314;-62
2021/05/06 01:28:15;;;;;;;3.53;1.60;;;;;;;9.44;50.55;97383.41;8382251;28;20487;-62
2021/05/06 01:32:21;;;;;;;1.77;1.17;;;;;;;9.36;50.55;97382.03;8382090;28;20232;-62
2021/05/06 01:36:26;;;;;;;3.57;1.40;;;;;;;9.45;50.42;97380.75;8382513;28;20275;-62
2021/05/06 01:40:52;;;;;;;3.47;1.30;;;;;;;9.49;50.13;97381.44;8380952;28;20243;-62
2021/05/06 01:58:03;;;;;;;2.43;1.40;;;;;;;9.32;51.23;97372.75;8381322;28;20199;-62
2021/05/06 02:02:09;;;;;;;2.07;1.30;;;;;;;9.50;50.68;97365.00;8381059;28;20389;-62
2021/05/06 02:06:11;;;;;;;3.47;1.53;;;;;;;9.35;51.16;97370.03;8381100;28;20219;-62
2021/05/06 02:10:14;;;;;;;1.87;1.40;;;;;;;9.28;51.59;97363.50;8380685;28;20291;-62
2021/05/06 02:14:17;;;;;;;2.50;1.27;;;;;;;9.38;51.44;97369.03;8380549;28;20200;-62
2021/05/06 02:18:19;;;;;;;2.33;1.40;;;;;;;9.31;51.52;97365.09;8380722;28;20203;-62
2021/05/06 02:22:21;;;;;;;3.70;1.33;;;;;;;9.39;51.69;97371.56;8380894;28;20240;-62
2021/05/06 02:26:23;;;;;;;3.53;1.53;;;;;;;9.30;52.06;97368.59;8380547;28;20204;-62
2021/05/06 02:30:26;;;;;;;3.93;1.60;;;;;;;9.36;52.08;97369.13;8380750;28;20415;-62
2021/05/06 02:34:28;;;;;;;3.93;1.87;;;;;;;9.32;52.42;97359.84;8380854;28;20200;-62
2021/05/06 02:38:30;;;;;;;2.10;1.53;;;;;;;9.37;52.10;97360.47;8380331;28;20200;-62
2021/05/06 02:42:32;;;;;;;4.10;1.83;;;;;;;9.22;52.71;97361.22;8380668;28;20208;-62
2021/05/06 02:46:34;;;;;;;3.53;1.80;;;;;;;9.21;52.66;97351.78;8380457;28;20212;-62
2021/05/06 02:50:41;;;;;;;3.97;1.73;;;;;;;9.22;52.89;97345.72;8379970;28;20231;-62
2021/05/06 02:54:46;;;;;;;8.97;1.63;;;;;;;9.28;52.48;97342.00;8379735;28;20434;-62
2021/05/06 02:59:04;;;;;;;5.37;1.60;;;;;;;9.22;52.83;97350.88;8379565;28;20236;-62
2021/05/06 03:03:06;;;;;;;3.87;1.67;;;;;;;9.24;52.69;97348.22;8379705;28;20208;-62
2021/05/06 03:07:10;;;;;;;3.37;1.50;;;;;;;9.23;52.79;97338.78;8379506;28;20220;-62
2021/05/06 03:11:27;;;;;;;3.17;1.60;;;;;;;9.25;52.64;97344.72;8379460;28;20406;-62
2021/05/06 03:24:11;;;;;;;3.20;1.87;;;;;;;9.36;52.49;97334.69;8379435;28;20328;-62
2021/05/06 03:28:15;;;;;;;3.53;1.50;;;;;;;9.30;52.54;97329.84;8378790;28;20200;-62
2021/05/06 03:45:42;;;;;;;4.03;1.90;;;;;;;9.23;52.64;97334.44;8378933;28;20204;-62
2021/05/06 03:50:10;;;;;;;3.20;1.80;;;;;;;9.36;52.37;97339.84;8378836;28;20239;-62
2021/05/06 04:37:27;;;;;;;3.47;1.83;;;;;;;9.14;53.46;97303.94;8360877;28;20196;-62
2021/05/06 04:41:39;;;;;;;4.70;1.90;;;;;;;9.17;53.58;97314.09;8384515;28;20204;-62
2021/05/06 04:50:27;;;;;;;5.17;2.30;;;;;;;9.13;53.58;97321.16;8374874;28;20228;-62
2021/05/06 04:54:31;;;;;;;3.90;1.90;;;;;;;9.23;53.42;97331.88;8384074;28;20211;-62
2021/05/06 05:07:29;;;;;;;6.27;2.23;;;;;;;9.29;53.21;97326.41;8383766;28;20199;-62
2021/05/06 05:11:42;;;;;;;5.63;2.40;;;;;;;9.26;53.53;97320.56;8383504;28;20557;-62
2021/05/06 05:20:09;;;;;;;4.10;2.30;;;;;;;9.63;52.68;97301.44;8382709;28;20298;-62
2021/05/06 05:24:18;;;;;;;3.43;2.13;;;;;;;9.54;52.85;97300.19;8382868;28;20347;-62
2021/05/06 05:28:20;;;;;;;8.67;2.23;;;;;;;9.55;52.82;97303.59;8382435;28;20196;-62
2021/05/06 05:32:22;;;;;;;4.43;1.97;;;;;;;9.73;52.27;97317.34;8382133;28;20235;-62
2021/05/06 05:36:25;;;;;;;3.70;2.10;;;;;;;9.69;52.56;97319.25;8382488;28;20204;-62
2021/05/06 05:40:29;;;;;;;4.77;2.50;;;;;;;9.78;52.07;97326.50;8382729;28;20486;-62
2021/05/06 05:57:37;;;;;;;3.40;1.90;;;;;;;10.00;51.67;97320.25;8365771;28;20460;-63
2021/05/06 06:01:39;;;;;;;3.97;1.83;;;;;;;10.10;51.32;97312.84;8380604;28;20221;-62
2021/05/06 06:05:41;;;;;;;5.70;2.00;;;;;;;10.23;50.69;97315.63;8381589;28;20259;-62
2021/05/06 06:09:44;;;;;;;4.30;1.80;;;;;;;10.18;51.13;97318.44;8381627;28;20206;-62
2021/05/06 06:13:48;;;;;;;4.87;2.30;;;;;;;10.12;51.40;97311.00;8380967;28;20294;-62
2021/05/06 06:17:50;;;;;;;3.37;1.80;;;;;;;10.43;52.58;97323.16;8364669;28;20250;-62
2021/05/06 06:22:00;;;;;;;6.53;1.77;;;;;;;12.39;51.74;97312.72;8348006;28;20228;-66
2021/05/06 06:26:04;;;;;;;6.07;1.90;;;;;;;11.40;46.81;97324.72;8366367;28;20219;-63
2021/05/06 06:30:10;;;;;;;6.33;2.27;;;;;;;11.35;46.93;97327.56;8381375;28;20292;-63
2021/05/06 06:34:12;;;;;;;4.63;2.10;;;;;;;11.34;47.09;97320.72;8381538;28;20471;-63
2021/05/06 06:38:15;;;;;;;7.87;2.03;;;;;;;11.27;47.16;97324.56;8381903;28;20206;-64
2021/05/06 06:42:17;;;;;;;4.40;1.70;;;;;;;11.25;47.14;97311.72;8365738;28;20313;-63
2021/05/06 06:46:19;;;;;;;6.37;1.80;;;;;;;11.29;47.55;97320.13;8360642;28;20362;-63
2021/05/06 06:50:22;;;;;;;5.10;1.83;;;;;;;11.11;47.58;97315.09;8355595;28;20290;-64
2021/05/06 06:54:25;;;;;;;4.23;1.73;;;;;;;11.02;47.10;97309.59;8367759;28;20501;-64
2021/05/06 06:58:32;;;;;;;4.50;1.83;;;;;;;11.03;48.45;97309.50;8364027;28;20218;-63
2021/05/06 07:02:34;;;;;;;4.67;1.90;;;;;;;11.13;47.47;97309.81;8367062;28;20215;-64
2021/05/06 07:06:37;;;;;;;4.10;2.00;;;;;;;11.10;47.71;97304.78;8357264;28;20468;-64
2021/05/06 07:10:40;;;;;;;5.37;1.87;;;;;;;11.13;46.99;97299.44;8378278;28;20227;-64
2021/05/06 07:14:43;;;;;;;4.93;1.67;;;;;;;11.61;47.43;97294.09;8379010;28;20207;-63
2021/05/06 07:18:46;;;;;;;3.97;1.83;;;;;;;11.46;47.93;97299.28;8379340;28;20273;-64
2021/05/06 07:22:49;;;;;;;4.87;2.03;;;;;;;11.02;48.23;97302.63;8379361;28;20228;-63
2021/05/06 07:26:53;;;;;;;4.70;1.60;;;;;;;10.77;48.24;97298.00;8378491;28;20223;-64
2021/05/06 07:30:57;;;;;;;4.23;1.87;;;;;;;11.11;48.79;97291.75;8379333;28;20479;-64
2021/05/06 07:35:00;;;;;;;5.80;1.97;;;;;;;11.12;48.22;97305.56;8379474;28;20199;-63
2021/05/06 07:39:04;;;;;;;5.73;2.30;;;;;;;11.06;47.84;97298.13;8377427;28;20206;-63
2021/05/06 07:43:10;;;;;;;5.23;1.90;;;;;;;11.24;47.95;97298.84;8376284;28;20371;-63
2021/05/06 07:47:15;;;;;;;5.23;2.07;;;;;;;10.98;48.38;97303.75;8378162;28;20207;-64
2021/05/06 07:51:21;;;;;;;4.27;2.00;;;;;;;11.03;49.70;97298.31;8377394;28;20467;-65
2021/05/06 07:55:26;;;;;;;5.13;2.00;;;;;;;10.94;49.71;97292.72;8378140;28;20206;-64
2021/05/06 07:59:28;;;;;;;5.33;1.83;;;;;;;11.27;50.39;97288.28;8378122;28;20214;-64
2021/05/06 08:03:31;;;;;;;5.33;2.00;;;;;;;11.32;48.76;97281.09;8378329;28;20199;-65
2021/05/06 08:07:33;;;;;;;6.10;1.90;;;;;;;11.24;50.59;97280.69;8378876;28;20330;-64
2021/05/06 08:11:35;;;;;;;5.87;2.33;;;;;;;11.22;49.31;97280.78;8378323;28;20502;-75
2021/05/06 08:15:37;;;;;;;5.60;2.20;;;;;;;11.22;49.47;97291.16;8378977;28;20207;-76
2021/05/06 08:19:41;;;;;;;3.73;1.63;;;;;;;10.92;51.11;97285.97;8375495;28;20202;-75
2021/05/06 08:23:43;;;;;;;5.97;2.10;;;;;;;10.74;51.89;97296.44;8377852;28;20199;-76
2021/05/06 08:27:45;;;;;;;6.70;2.30;;;;;;;10.83;53.01;97286.47;8378860;28;20200;-75
2021/05/06 08:31:47;;;;;;;4.93;2.03;;;;;;;10.76;53.40;97292.00;8378181;28;20517;-78
2021/05/06 08:35:50;;;;;;;5.87;2.37;;;;;;;10.83;53.46;97294.25;8378016;28;20207;-71
2021/05/06 08:39:53;;;;;;;7.73;2.30;;;;;;;10.84;53.97;97306.28;8377421;28;20207;-77
2021/05/06 08:43:57;;;;;;;7.17;2.50;;;;;;;10.61;55.25;97298.03;8377701;28;20188;-77
2021/05/06 08:47:59;;;;;;;9.67;1.90;;;;;;;11.01;54.33;97277.66;8377087;28;20192;-77
2021/05/06 08:52:05;;;;;;;8.33;3.20;;;;;;;11.08;54.14;97280.72;8383985;28;20337;-78
2021/05/06 08:56:07;;;;;;;8.57;2.47;;;;;;;10.96;54.43;97277.09;8384475;28;20211;-73
2021/05/06 09:00:10;;;;;;;3.53;1.90;;;;;;;10.99;55.05;97276.94;8384679;28;20522;-74
2021/05/06 09:04:12;;;;;;;6.63;2.20;;;;;;;10.99;55.22;97276.09;8384278;28;20216;-75
2021/05/06 09:08:33;;;;;;;6.67;2.27;;;;;;;11.08;54.79;97278.13;8384385;28;20210;-75
2021/05/06 09:12:37;;;;;;;6.40;2.80;;;;;;;11.00;55.06;97277.75;8384346;28;20228;-76
2021/05/06 09:16:40;;;;;;;5.27;2.60;;;;;;;10.96;55.52;97274.50;8384118;28;20199;-76
2021/05/06 09:20:42;;;;;;;5.27;2.37;;;;;;;10.79;55.13;97274.63;8384152;28;20333;-75
2021/05/06 09:24:45;;;;;;;3.23;2.10;;;;;;;10.91;55.42;97274.78;8383985;28;20267;-77
2021/05/06 09:28:47;;;;;;;7.03;2.70;;;;;;;10.85;55.69;97277.72;8383473;28;20203;-77
2021/05/06 09:32:49;;;;;;;5.90;2.53;;;;;;;10.63;56.18;97269.47;8382038;28;20227;-73
2021/05/06 09:36:51;;;;;;;6.23;2.63;;;;;;;10.60;56.68;97262.69;8382975;28;20254;-76
2021/05/06 09:40:55;;;;;;;9.63;3.43;;;;;;;10.67;57.60;97258.84;8382628;28;20203;-76
2021/05/06 09:44:56;;;;;;;6.47;2.70;;;;;;;10.73;57.40;97257.66;8383281;28;20271;-72
2021/05/06 09:49:00;;;;;;;5.47;2.30;;;;;;;10.83;57.44;97266.56;8382738;28;20203;-72
2021/05/06 09:53:09;;;;;;;5.97;2.63;;;;;;;10.83;58.03;97255.41;8383215;28;20576;-72
2021/05/06 09:57:12;;;;;;;5.23;2.30;;;;;;;10.81;57.98;97271.00;8383162;28;20447;-72
2021/05/06 10:01:14;;;;;;;5.57;2.30;;;;;;;10.65;57.93;97267.63;8382065;28;20211;-72
2021/05/06 10:05:16;;;;;;;4.80;2.33;;;;;;;10.78;57.05;97260.03;8381927;28;20215;-75
2021/05/06 10:09:18;;;;;;;7.63;2.80;;;;;;;10.65;56.95;97260.69;8382843;28;20393;-74
2021/05/06 10:13:21;;;;;;;12.30;7.87;;;;;;;10.83;56.71;97258.81;8381096;28;20227;-73
2021/05/06 10:17:24;;;;;;;17.10;9.10;;;;;;;10.88;55.95;97266.34;8382460;28;20200;-75
2021/05/06 10:21:28;;;;;;;7.77;3.87;;;;;;;11.02;56.22;97253.41;8379856;28;20585;-76
2021/05/06 10:25:30;;;;;;;4.90;2.80;;;;;;;11.24;56.58;97247.84;8355037;28;20196;-75
2021/05/06 10:29:33;;;;;;;3.90;2.13;;;;;;;11.27;56.81;97252.84;8348649;28;20291;-74
2021/05/06 10:33:37;;;;;;;6.43;4.13;;;;;;;11.74;54.63;97246.56;8348648;28;20247;-77
2021/05/06 10:37:41;;;;;;;4.37;2.10;;;;;;;11.64;52.20;97236.88;8361352;28;20204;-73
2021/05/06 10:41:43;;;;;;;5.17;2.53;;;;;;;12.27;53.12;97236.44;8368540;28;20195;-72
2021/05/06 10:45:55;;;;;;;4.47;2.63;;;;;;;12.55;53.16;97234.72;8371105;28;20215;-75
2021/05/06 10:50:08;;;;;;;6.17;2.60;;;;;;;12.19;55.29;97230.91;8381918;28;20191;-74
2021/05/06 10:54:35;;;;;;;5.13;2.70;;;;;;;12.07;54.10;97226.47;8381155;28;20286;-76
2021/05/06 10:58:42;;;;;;;5.23;2.73;;;;;;;12.68;54.29;97225.19;8378624;28;20199;-78
2021/05/06 11:02:50;;;;;;;5.77;3.00;;;;;;;12.42;54.21;97226.03;8374450;28;20243;-71
2021/05/06 11:07:10;;;;;;;5.93;2.53;;;;;;;12.31;53.20;97218.91;8363389;28;20403;-71
2021/05/06 11:11:17;;;;;;;4.10;2.53;;;;;;;11.78;54.88;97217.88;8364997;28;21350;-64
2021/05/06 11:15:23;;;;;;;5.90;2.77;;;;;;;11.95;54.16;97215.09;8376933;28;20196;-63
2021/05/06 11:24:18;;;;;;;6.30;5.10;;;;;;;11.28;54.46;97210.44;8433257;27;20721;-62
2021/05/06 11:28:39;;;;;;;5.33;3.00;;;;;;;10.93;56.01;97192.63;8408508;28;20346;-62
2021/05/06 11:32:41;;;;;;;5.50;2.77;;;;;;;10.73;57.71;97198.09;8400345;28;20195;-62
2021/05/06 11:36:43;;;;;;;5.63;2.70;;;;;;;11.39;56.14;97183.88;8406016;28;20206;-61
2021/05/06 11:40:58;;;;;;;5.23;2.90;;;;;;;12.01;53.79;97172.38;8404638;28;20207;-62
2021/05/06 11:45:14;;;;;;;9.03;3.53;;;;;;;11.87;53.53;97183.59;8408149;28;20205;-62
2021/05/06 11:49:17;;;;;;;6.53;2.80;;;;;;;10.71;56.68;97177.47;8407711;28;20316;-62
2021/05/06 11:53:19;;;;;;;6.57;3.27;;;;;;;11.06;55.95;97148.69;8407388;28;20400;-62
2021/05/06 11:57:23;;;;;;;8.00;4.37;;;;;;;10.92;56.55;97161.63;8406162;28;20309;-62
2021/05/06 12:01:27;;;;;;;7.70;3.27;;;;;;;10.61;56.85;97153.03;8406356;28;20427;-62
2021/05/06 12:06:02;;;;;;;8.33;3.90;;;;;;;10.50;57.85;97158.00;8406796;28;20216;-62
2021/05/06 12:10:08;;;;;;;6.27;3.00;;;;;;;10.62;58.33;97151.28;8329432;28;20197;-62
2021/05/06 12:14:11;;;;;;;4.77;3.27;;;;;;;11.07;56.68;97134.81;8370166;28;20218;-61
2021/05/06 12:18:17;;;;;;;8.73;3.67;;;;;;;11.19;57.20;97130.63;8400959;28;20203;-61
2021/05/06 12:22:19;;;;;;;5.83;3.20;;;;;;;11.29;56.09;97123.13;8400329;28;20299;-61
2021/05/06 12:26:23;;;;;;;7.60;3.43;;;;;;;11.00;56.38;97112.78;8406682;28;20266;-61
2021/05/06 12:30:27;;;;;;;8.40;3.63;;;;;;;11.59;55.79;97110.06;8404536;28;20440;-63
2021/05/06 12:34:34;;;;;;;6.07;3.43;;;;;;;11.01;56.56;97109.25;8388434;28;20206;-61
2021/05/06 12:38:37;;;;;;;6.63;3.07;;;;;;;11.42;55.64;97103.31;8384454;28;20218;-62
2021/05/06 12:42:39;;;;;;;6.27;3.50;;;;;;;11.63;55.04;97108.09;8384203;28;20482;-69
2021/05/06 12:46:42;;;;;;;4.47;3.00;;;;;;;11.38;56.26;97101.84;8384359;28;20266;-69
2021/05/06 12:50:45;;;;;;;6.90;3.10;;;;;;;11.39;56.14;97115.66;8383697;28;20218;-69
2021/05/06 12:54:47;;;;;;;7.60;3.43;;;;;;;11.24;56.82;97088.91;8383600;28;20460;-70
2021/05/06 12:58:49;;;;;;;6.47;3.53;;;;;;;11.30;56.69;97098.91;8383163;28;20229;-69
2021/05/06 13:03:01;;;;;;;6.23;3.30;;;;;;;11.43;56.38;97086.84;8383263;28;20223;-70
2021/05/06 13:07:03;;;;;;;8.40;4.03;;;;;;;10.69;58.33;97074.91;8382252;28;20220;-70
2021/05/06 13:11:06;;;;;;;5.33;3.43;;;;;;;10.46;59.25;97071.09;8383328;28;20204;-71
2021/05/06 13:15:09;;;;;;;7.13;3.30;;;;;;;11.33;57.32;97070.22;8382797;28;20204;-70
2021/05/06 13:19:13;;;;;;;6.83;4.33;;;;;;;11.54;56.17;97068.88;8382745;28;20199;-71
2021/05/06 13:23:22;;;;;;;10.77;3.70;;;;;;;11.57;53.53;97060.06;8382817;28;20346;-71
2021/05/06 13:27:26;;;;;;;8.00;2.93;;;;;;;11.74;50.94;97052.03;8382538;28;20218;-71
2021/05/06 13:31:33;;;;;;;5.77;3.10;;;;;;;12.00;51.21;97046.97;8382555;28;20208;-71
2021/05/06 13:35:36;;;;;;;8.77;3.43;;;;;;;12.07;50.90;97043.06;8381964;28;20208;-70
2021/05/06 13:39:38;;;;;;;8.47;3.17;;;;;;;12.08;50.80;97038.69;8382756;28;20210;-71
2021/05/06 13:43:40;;;;;;;9.90;3.07;;;;;;;12.05;50.46;97034.56;8381044;28;20255;-70
2021/05/06 13:47:47;;;;;;;8.83;3.37;;;;;;;12.08;50.15;97023.13;8382307;28;20200;-72
2021/05/06 13:51:50;;;;;;;6.53;2.90;;;;;;;11.92;50.90;97018.13;8381977;28;20383;-70
2021/05/06 13:55:52;;;;;;;7.00;2.97;;;;;;;12.01;50.08;97011.47;8381811;28;20211;-71
2021/05/06 13:59:54;;;;;;;7.33;3.00;;;;;;;12.06;49.76;97005.06;8382032;28;20207;-71
2021/05/06 14:03:57;;;;;;;6.70;3.27;;;;;;;12.05;50.23;96994.78;8380902;28;20429;-72
2021/05/06 14:08:00;;;;;;;8.80;3.47;;;;;;;12.03;49.84;96986.25;8381326;28;20503;-71
2021/05/06 14:12:02;;;;;;;9.37;4.57;;;;;;;11.93;50.45;96988.63;8380713;28;20270;-71
2021/05/06 14:16:04;;;;;;;9.13;5.07;;;;;;;12.03;50.41;96973.28;8379687;28;20196;-70
2021/05/06 14:20:07;;;;;;;7.07;3.37;;;;;;;11.74;50.62;96965.63;8380206;28;20488;-71
2021/05/06 14:24:12;;;;;;;6.83;2.93;;;;;;;11.96;50.20;96959.91;8380686;28;20207;-70
2021/05/06 14:28:14;;;;;;;10.00;3.37;;;;;;;11.81;50.42;96950.50;8380270;28;20528;-63
2021/05/06 14:32:16;;;;;;;7.63;3.73;;;;;;;11.67;50.65;96965.19;8380189;28;20211;-62
2021/05/06 14:36:19;;;;;;;8.57;3.50;;;;;;;11.80;50.89;96957.44;8380034;28;20204;-63
2021/05/06 14:40:21;;;;;;;7.50;3.33;;;;;;;11.78;51.68;96951.50;8379714;28;20227;-63
2021/05/06 14:44:23;;;;;;;7.37;3.40;;;;;;;11.66;53.21;96942.78;8379835;28;20281;-63
2021/05/06 14:48:25;;;;;;;7.93;4.10;;;;;;;11.32;53.90;96939.75;8372275;28;20196;-64
2021/05/06 14:52:27;;;;;;;8.80;3.90;;;;;;;11.58;55.00;96928.66;8367689;28;20369;-63
2021/05/06 14:56:30;;;;;;;10.07;3.60;;;;;;;11.52;54.84;96925.53;8379819;28;20218;-63
2021/05/06 15:00:32;;;;;;;9.87;4.40;;;;;;;11.77;55.58;96913.56;8380342;28;20238;-63
2021/05/06 15:04:35;;;;;;;8.07;3.80;;;;;;;11.00;57.94;96905.50;8379970;28;20250;-63
2021/05/06 15:08:42;;;;;;;9.53;4.67;;;;;;;11.17;57.80;96907.03;8380076;28;20199;-63
2021/05/06 15:12:46;;;;;;;11.80;4.13;;;;;;;11.10;58.82;96910.94;8380558;28;20302;-63
2021/05/06 15:16:48;;;;;;;9.73;3.70;;;;;;;10.95;59.27;96907.59;8380163;28;20545;-64
2021/05/06 15:20:52;;;;;;;9.67;4.40;;;;;;;11.16;59.35;96900.22;8380170;28;20236;-64
2021/05/06 15:24:53;;;;;;;10.73;4.47;;;;;;;10.98;60.81;96889.25;8379615;28;20200;-63
2021/05/06 15:28:56;;;;;;;8.50;3.50;;;;;;;11.03;60.52;96878.59;8379747;28;20199;-64
2021/05/06 15:33:01;;;;;;;10.27;3.90;;;;;;;10.78;61.57;96863.78;8379535;28;20222;-64
2021/05/06 15:37:09;;;;;;;7.07;3.60;;;;;;;10.80;61.95;96847.22;8380349;28;20191;-63
2021/05/06 15:41:11;;;;;;;8.93;3.27;;;;;;;10.67;62.66;96846.31;8378285;28;20236;-62
2021/05/06 15:45:15;;;;;;;7.80;4.70;;;;;;;10.39;63.68;96842.00;8378852;28;20423;-63
2021/05/06 15:49:17;;;;;;;9.37;4.43;;;;;;;10.36;64.12;96841.28;8379596;28;20513;-62
2021/05/06 15:53:21;;;;;;;7.70;3.20;;;;;;;10.39;62.77;96842.84;8379765;28;20239;-62
2021/05/06 15:57:23;;;;;;;9.60;4.00;;;;;;;10.63;63.11;96834.50;8379594;28;20395;-62
2021/05/06 16:01:27;;;;;;;7.57;4.20;;;;;;;10.63;63.66;96850.84;8379189;28;20231;-62
2021/05/06 16:05:29;;;;;;;6.67;3.80;;;;;;;10.43;64.15;96840.91;8378591;28;20220;-63
2021/05/06 16:09:31;;;;;;;10.10;4.23;;;;;;;10.59;63.49;96830.44;8383031;28;20222;-62
2021/05/06 16:13:33;;;;;;;9.00;5.17;;;;;;;10.33;64.61;96831.09;8385456;28;20432;-62
2021/05/06 16:17:36;;;;;;;8.23;3.97;;;;;;;10.17;65.08;96830.38;8372785;28;20211;-64
2021/05/06 16:21:39;;;;;;;10.93;5.13;;;;;;;10.30;65.09;96817.50;8369196;28;20343;-62
2021/05/06 16:25:41;;;;;;;14.60;9.63;;;;;;;10.49;65.20;96815.47;8383154;28;20483;-62
2021/05/06 16:29:44;;;;;;;10.47;6.97;;;;;;;10.17;66.45;96813.06;8385115;28;20364;-62
2021/05/06 16:33:50;;;;;;;11.77;6.37;;;;;;;9.91;67.56;96801.72;8384688;28;20249;-62
2021/05/06 16:37:56;;;;;;;9.97;4.90;;;;;;;10.25;65.35;96802.25;8384412;28;20225;-61
2021/05/06 16:42:02;;;;;;;8.93;5.57;;;;;;;10.17;66.50;96778.63;8384737;28;20540;-62
2021/05/06 16:46:05;;;;;;;10.37;5.87;;;;;;;10.32;66.34;96777.69;8380356;28;20203;-62
2021/05/06 16:50:09;;;;;;;8.93;5.60;;;;;;;10.58;66.02;96772.63;8382684;28;20215;-62
2021/05/06 16:54:11;;;;;;;12.03;6.23;;;;;;;10.39;66.66;96766.97;8383820;28;20306;-63
2021/05/06 16:58:13;;;;;;;11.17;4.97;;;;;;;10.37;66.23;96743.75;8383807;28;20433;-77
2021/05/06 17:02:15;;;;;;;8.40;5.23;;;;;;;10.17;67.25;96735.47;8383910;28;20432;-78
2021/05/06 17:06:18;;;;;;;10.40;6.27;;;;;;;10.06;68.00;96740.47;8383960;28;20503;-79
2021/05/06 17:10:21;;;;;;;13.13;6.20;;;;;;;10.17;67.37;96745.81;8381930;28;20207;-79
2021/05/06 17:14:23;;;;;;;13.17;7.87;;;;;;;10.14;67.24;96725.28;8381622;28;20518;-78
2021/05/06 17:18:25;;;;;;;12.93;7.27;;;;;;;10.22;67.56;96727.41;8383961;28;20237;-78
2021/05/06 17:22:28;;;;;;;18.10;9.60;;;;;;;10.42;67.86;96730.56;8384146;28;20247;-75
2021/05/06 17:26:31;;;;;;;13.37;7.73;;;;;;;10.19;68.36;96725.03;8383484;28;20207;-76
2021/05/06 17:30:33;;;;;;;14.57;6.97;;;;;;;10.30;67.63;96713.97;8382455;28;20208;-75
2021/05/06 17:34:35;;;;;;;10.37;5.50;;;;;;;10.14;67.16;96707.19;8383664;28;20402;-83
2021/05/06 17:38:39;;;;;;;9.77;5.47;;;;;;;9.88;68.31;96695.03;8383521;28;20369;-83
2021/05/06 17:42:41;;;;;;;5.03;3.50;;;;;;;10.13;67.48;96691.78;8383210;28;20798;-84
2021/05/06 17:46:43;;;;;;;7.67;4.40;;;;;;;10.01;67.81;96695.13;8382279;28;20329;-84
2021/05/06 17:50:46;;;;;;;6.67;3.60;;;;;;;10.00;68.12;96690.91;8382105;28;20281;-82
2021/05/06 17:54:48;;;;;;;4.27;2.27;;;;;;;10.33;66.21;96686.19;8382322;28;20225;-83
2021/05/06 17:58:53;;;;;;;2.03;1.83;;;;;;;10.42;65.12;96671.03;8381798;28;20199;-82
2021/05/06 18:02:54;;;;;;;3.23;2.10;;;;;;;10.43;65.06;96686.44;8382137;28;20227;-82
2021/05/06 18:06:56;;;;;;;2.13;1.67;;;;;;;10.47;65.03;96693.09;8381756;28;20227;-82
2021/05/06 18:11:06;;;;;;;2.20;1.33;;;;;;;10.55;64.73;96706.38;8381601;28;20212;-84
2021/05/06 18:15:09;;;;;;;1.47;1.37;;;;;;;10.42;65.31;96708.06;8378636;28;20219;-83
2021/05/06 18:19:11;;;;;;;1.57;1.47;;;;;;;10.53;65.34;96725.53;8371438;28;20195;-82
2021/05/06 18:23:13;;;;;;;3.33;2.03;;;;;;;10.61;64.92;96735.38;8366858;28;20245;-83
2021/05/06 18:27:17;;;;;;;4.33;3.13;;;;;;;10.59;65.12;96737.25;8364287;28;20338;-80
2021/05/06 18:31:19;;;;;;;3.13;2.53;;;;;;;11.01;64.99;96743.16;8364166;28;20196;-80
2021/05/06 18:35:21;;;;;;;2.33;2.00;;;;;;;10.86;64.47;96734.63;8364491;28;20191;-79
2021/05/06 18:39:23;;;;;;;2.27;1.80;;;;;;;10.88;64.36;96748.31;8368976;28;20196;-81
2021/05/06 18:43:26;;;;;;;2.60;2.07;;;;;;;10.62;65.49;96717.13;8371245;28;20235;-82
2021/05/06 18:47:28;;;;;;;2.97;2.33;;;;;;;10.70;65.22;96691.59;8371907;28;20198;-81
2021/05/06 18:51:32;;;;;;;6.70;5.53;;;;;;;10.08;67.24;96632.56;8379834;28;20231;-63
2021/05/06 18:55:34;;;;;;;5.63;2.10;;;;;;;9.53;69.96;96574.81;8380581;28;20211;-63
2021/05/06 18:59:37;;;;;;;7.37;4.97;;;;;;;9.07;71.19;96540.66;8380520;28;20279;-63
2021/05/06 19:03:39;;;;;;;2.17;1.60;;;;;;;9.12;70.90;96575.63;8376956;28;20495;-63
2021/05/06 19:07:42;;;;;;;6.70;6.10;;;;;;;9.70;69.20;96622.88;8363084;28;20201;-70
2021/05/06 19:11:45;;;;;;;2.67;2.10;;;;;;;9.91;67.95;96648.31;8362860;28;20222;-68
2021/05/06 19:15:48;;;;;;;3.43;2.23;;;;;;;10.26;67.15;96673.72;8362718;28;20195;-68
2021/05/06 19:19:50;;;;;;;2.17;1.47;;;;;;;10.42;66.09;96682.19;8362466;28;20199;-68
2021/05/06 19:23:52;;;;;;;4.70;1.73;;;;;;;10.55;66.01;96692.59;8362489;28;20460;-68
2021/05/06 19:27:54;;;;;;;2.50;1.97;;;;;;;10.05;67.18;96686.25;8362613;28;20475;-68
2021/05/06 19:31:57;;;;;;;3.80;2.63;;;;;;;10.39;66.25;96684.16;8362657;28;20491;-69
2021/05/06 19:35:59;;;;;;;3.07;2.77;;;;;;;10.47;66.15;96687.06;8362640;28;20517;-69
2021/05/06 19:40:01;;;;;;;3.60;2.50;;;;;;;10.16;67.44;96668.28;8362440;28;20199;-69
2021/05/06 19:44:06;;;;;;;5.63;2.50;;;;;;;10.46;66.57;96675.06;8361010;28;20311;-69
2021/05/06 19:48:09;;;;;;;4.83;4.37;;;;;;;10.36;66.99;96664.47;8369184;28;20255;-70
2021/05/06 19:52:12;;;;;;;5.50;5.00;;;;;;;10.35;67.04;96665.41;8368153;28;20207;-68
2021/05/06 19:56:14;;;;;;;7.40;6.80;;;;;;;10.59;66.59;96660.41;8367974;28;20204;-68
2021/05/06 20:00:17;;;;;;;12.20;11.00;;;;;;;9.95;68.50;96663.53;8367470;28;20203;-68
2021/05/06 20:04:27;;;;;;;3.77;3.47;;;;;;;10.12;68.58;96661.66;8368782;28;20231;-68
2021/05/06 20:08:29;;;;;;;8.53;7.70;;;;;;;10.34;67.49;96661.16;8368382;28;20204;-68
2021/05/06 20:12:31;;;;;;;6.53;5.93;;;;;;;10.25;67.67;96654.78;8368414;28;20196;-69
2021/05/06 20:16:33;;;;;;;8.23;7.20;;;;;;;10.28;68.10;96640.81;8368288;28;20191;-69
2021/05/06 20:20:39;;;;;;;9.07;6.90;;;;;;;10.20;68.09;96646.47;8367799;28;20192;-69
2021/05/06 20:24:41;;;;;;;4.40;3.50;;;;;;;10.40;67.66;96652.19;8367233;28;20216;-69
2021/05/06 20:28:43;;;;;;;7.33;5.50;;;;;;;10.24;68.27;96644.50;8368425;28;20510;-69
2021/05/06 20:32:45;;;;;;;10.73;8.83;;;;;;;10.14;68.78;96636.53;8367977;28;20207;-69
2021/05/06 20:36:49;;;;;;;3.70;3.40;;;;;;;10.37;67.68;96648.00;8367871;28;20214;-70
2021/05/06 20:40:51;;;;;;;7.73;5.60;;;;;;;10.16;68.70;96637.25;8368200;28;20192;-70
2021/05/06 20:44:55;;;;;;;15.03;10.03;;;;;;;10.04;69.39;96625.09;8369304;28;20263;-70
2021/05/06 20:48:57;;;;;;;7.30;5.63;;;;;;;10.37;67.79;96635.88;8367189;28;20188;-70
2021/05/06 20:53:00;;;;;;;13.07;8.13;;;;;;;10.18;68.95;96620.72;8366743;28;20394;-70
2021/05/06 20:57:02;;;;;;;11.37;7.10;;;;;;;10.08;69.00;96613.63;8366093;28;20197;-70
2021/05/06 21:01:07;;;;;;;6.60;4.77;;;;;;;10.10;68.57;96611.78;8367058;28;20480;-70
2021/05/06 21:05:10;;;;;;;5.20;3.95;;;;;;;10.46;67.90;96610.38;8361078;28;20428;-73
2021/05/06 21:09:13;;;;;;;5.30;4.13;;;;;;;10.26;68.91;96615.06;8364127;28;20200;-73
2021/05/06 21:13:35;;;;;;;3.17;2.60;;;;;;;10.46;67.89;96603.41;8376694;28;20188;-74
2021/05/06 21:17:37;;;;;;;5.17;2.93;;;;;;;10.52;67.84;96609.94;8367237;28;20210;-74
2021/05/06 21:21:39;;;;;;;3.10;2.80;;;;;;;10.69;67.30;96608.84;8367160;28;20239;-74
2021/05/06 21:25:43;;;;;;;3.17;2.60;;;;;;;10.72;67.52;96606.88;8363964;28;20216;-73
2021/05/06 21:29:45;;;;;;;4.20;2.77;;;;;;;10.78;67.40;96615.19;8367558;28;20192;-74
2021/05/06 21:33:47;;;;;;;2.83;2.63;;;;;;;10.76;67.71;96617.88;8365492;28;20199;-74
2021/05/06 21:37:49;;;;;;;4.60;3.20;;;;;;;10.80;67.85;96616.72;8365716;28;20192;-73
2021/05/06 21:41:52;;;;;;;3.70;3.20;;;;;;;10.78;68.20;96622.94;8352978;28;20264;-71
2021/05/06 21:45:54;;;;;;;3.50;3.20;;;;;;;10.78;68.07;96626.38;8382431;28;20215;-70
2021/05/06 21:49:56;;;;;;;3.83;3.43;;;;;;;10.92;67.78;96628.84;8382307;28;20211;-73